Mannsville, Oklahoma
Current Conditions -  °F | °C
As of 4:55 AM on Wednesday 22 Oct 2014 (Local Time) from KADM Reporting Station
Haze Haze  
Wind Chill: 54°   Ceiling: 500
Heat Index: 54°   Visibility: 0.75mi
Dew Point: 54°   Wind: 0mph
Humidity: 100%   Direction: NA
Pressure: 30.08"   Gusts: NA
Location:  34.19°N, 96.88°W
Report Text: KADM 220955Z AUTO 00000KT 3/4SM BR VV005 12/12 A3008 RMK AO2 T01230123
Loading
Personal Weather Stations






























Interactive Weather Map
Tropical Storm Tracking
New forecast layout! Learn more

10-Day Weather Forecast

Advertisements
Track Severe Weather on mobile